Time;durP1;ratioP1;P1;durP2;ratioP2;P2;SDS_P1;SDS_P2;PMS_P1;PMS_P2;Temp;Humidity;BMP_temperature;BMP_pressure;BME280_temperature;BME280_humidity;BME280_pressure;Samples;Min_cycle;Max_cycle;Signal;HPM_P1;HPM_P2
2023/10/10 00:04:19;;;;;;;;;;;15.10;99.90;;;;;;12496262;28;19936;-82
2023/10/10 00:10:21;;;;;;;;;;;15.00;99.90;;;;;;12492957;28;19968;-82
2023/10/10 00:16:26;;;;;;;;;;;15.00;99.90;;;;;;12496796;28;20016;-82
2023/10/10 00:22:35;;;;;;;;;;;15.00;99.90;;;;;;12506790;28;20034;-82
2023/10/10 00:28:39;;;;;;;;;;;15.10;99.90;;;;;;12477281;28;19929;-82
2023/10/10 00:34:43;;;;;;;;;;;15.00;99.90;;;;;;12481813;28;19933;-83
2023/10/10 00:40:48;;;;;;;;;;;15.00;99.90;;;;;;12491111;28;19935;-82
2023/10/10 00:46:54;;;;;;;;;;;15.10;99.90;;;;;;12487931;28;19929;-82
2023/10/10 00:52:56;;;;;;;;;;;15.00;99.90;;;;;;12481027;28;20523;-82
2023/10/10 00:58:58;;;;;;;;;;;14.90;99.90;;;;;;12496654;28;20012;-81
2023/10/10 01:05:11;;;;;;;;;;;15.00;99.90;;;;;;12486955;28;20012;-82
2023/10/10 01:11:16;;;;;;;;;;;14.90;99.90;;;;;;12474369;28;19929;-82
2023/10/10 01:17:19;;;;;;;;;;;15.00;99.90;;;;;;12489564;28;20439;-82
2023/10/10 01:23:27;;;;;;;;;;;15.00;99.90;;;;;;12497473;28;19933;-81
2023/10/10 01:29:40;;;;;;;;;;;14.90;99.90;;;;;;12496665;28;20486;-82
2023/10/10 01:35:43;;;;;;;;;;;14.90;99.90;;;;;;12491602;28;19952;-82
2023/10/10 01:41:48;;;;;;;;;;;14.90;99.90;;;;;;12499925;28;19928;-82
2023/10/10 01:47:56;;;;;;;;;;;15.10;99.90;;;;;;12499490;28;19932;-82
2023/10/10 01:53:59;;;;;;;;;;;14.90;99.90;;;;;;12512420;28;19928;-82
2023/10/10 02:00:19;;;;;;;;;;;14.90;99.90;;;;;;12483608;28;20304;-82
2023/10/10 02:06:34;;;;;;;;;;;14.90;99.90;;;;;;12495646;28;20055;-82
2023/10/10 02:12:36;;;;;;;;;;;15.00;99.90;;;;;;12505393;28;19928;-82
2023/10/10 02:18:44;;;;;;;;;;;15.10;99.90;;;;;;12508208;28;20356;-82
2023/10/10 02:24:49;;;;;;;;;;;15.10;99.90;;;;;;12513080;28;20019;-83
2023/10/10 02:30:52;;;;;;;;;;;15.10;99.90;;;;;;12506284;28;19933;-83
2023/10/10 02:37:12;;;;;;;;;;;14.90;99.90;;;;;;12510806;28;20495;-83
2023/10/10 02:43:33;;;;;;;;;;;15.00;99.90;;;;;;12500197;28;19960;-83
2023/10/10 02:49:37;;;;;;;;;;;14.90;99.90;;;;;;12497039;28;20550;-83
2023/10/10 02:55:41;;;;;;;;;;;14.90;99.90;;;;;;12492183;28;19929;-83
2023/10/10 03:02:09;;;;;;;;;;;15.00;99.90;;;;;;12512959;28;19932;-83
2023/10/10 03:08:18;;;;;;;;;;;15.10;99.90;;;;;;12503425;28;20422;-83
2023/10/10 03:14:28;;;;;;;;;;;15.10;99.90;;;;;;12505534;28;20401;-83
2023/10/10 05:26:56;;;;;;;;;;;14.90;99.90;;;;;;12501932;28;19928;-83
2023/10/10 05:33:01;;;;;;;;;;;14.90;99.90;;;;;;12502246;28;19929;-85
2023/10/10 05:39:03;;;;;;;;;;;14.80;99.90;;;;;;12483222;28;19928;-83
2023/10/10 05:45:08;;;;;;;;;;;14.80;99.90;;;;;;12505142;28;19947;-86
2023/10/10 05:51:13;;;;;;;;;;;14.80;99.90;;;;;;12492387;28;20015;-86
2023/10/10 05:57:14;;;;;;;;;;;14.90;99.90;;;;;;12491080;28;19936;-83
2023/10/10 06:03:17;;;;;;;;;;;14.90;99.90;;;;;;12485643;28;20541;-83
2023/10/10 06:09:19;;;;;;;;;;;14.90;99.90;;;;;;12482026;28;20274;-82
2023/10/10 06:15:21;;;;;;;;;;;14.90;99.90;;;;;;12500914;28;19929;-81
2023/10/10 06:21:23;;;;;;;;;;;14.90;99.90;;;;;;12496533;28;19940;-82
2023/10/10 06:27:28;;;;;;;;;;;14.90;99.90;;;;;;12491516;28;19960;-82
2023/10/10 06:33:32;;;;;;;;;;;15.00;99.90;;;;;;12487843;28;19990;-82
2023/10/10 06:39:35;;;;;;;;;;;15.10;99.90;;;;;;12498979;28;20004;-82
2023/10/10 06:45:39;;;;;;;;;;;15.00;99.90;;;;;;12504511;28;19929;-83
2023/10/10 06:51:41;;;;;;;;;;;15.10;99.90;;;;;;12495310;28;20393;-83
2023/10/10 06:57:45;;;;;;;;;;;15.10;99.90;;;;;;12498112;28;19982;-83
2023/10/10 07:03:54;;;;;;;;;;;15.10;99.90;;;;;;12500459;28;20455;-81
2023/10/10 07:09:59;;;;;;;;;;;15.20;99.90;;;;;;12499309;28;19974;-84
2023/10/10 07:16:01;;;;;;;;;;;15.20;99.90;;;;;;12509017;28;20027;-84
2023/10/10 07:22:03;;;;;;;;;;;15.20;99.90;;;;;;12506845;28;20308;-83
2023/10/10 07:28:05;;;;;;;;;;;15.30;99.90;;;;;;12501141;28;20884;-83
2023/10/10 07:34:15;;;;;;;;;;;15.40;99.90;;;;;;12503287;28;19975;-85
2023/10/10 07:46:22;;;;;;;;;;;15.80;99.90;;;;;;12507639;28;19935;-83
2023/10/10 07:52:24;;;;;;;;;;;15.80;99.90;;;;;;12490765;28;19950;-84
2023/10/10 07:59:13;;;;;;;;;;;15.70;99.90;;;;;;12500050;28;20015;-83
2023/10/10 08:04:54;;;;;;;;;;;15.90;99.90;;;;;;12490574;28;20385;-83
2023/10/10 08:10:56;;;;;;;;;;;16.10;99.90;;;;;;12503007;28;20045;-83
2023/10/10 08:17:02;;;;;;;;;;;16.20;99.90;;;;;;12483871;28;19932;-84
2023/10/10 08:23:04;;;;;;;;;;;16.30;99.90;;;;;;12492008;28;19951;-85
2023/10/10 08:29:10;;;;;;;;;;;16.40;99.90;;;;;;12503027;28;19928;-82
2023/10/10 08:35:12;;;;;;;;;;;16.40;99.90;;;;;;12503991;28;19943;-82
2023/10/10 08:41:19;;;;;;;;;;;16.50;99.90;;;;;;12488774;28;19929;-82
2023/10/10 08:47:31;;;;;;;;;;;16.50;99.90;;;;;;12491074;28;20193;-83
2023/10/10 08:53:38;;;;;;;;;;;16.70;99.90;;;;;;12500956;28;19980;-85
2023/10/10 08:59:42;;;;;;;;;;;16.70;99.90;;;;;;12496490;28;19993;-82
2023/10/10 09:05:44;;;;;;;;;;;16.80;99.90;;;;;;12498106;28;20002;-82
2023/10/10 09:11:46;;;;;;;;;;;16.80;99.90;;;;;;12504283;28;19933;-82
2023/10/10 09:17:48;;;;;;;;;;;16.70;99.90;;;;;;12499163;28;19928;-82
2023/10/10 09:24:25;;;;;;;;;;;16.70;99.90;;;;;;12506128;28;19933;-85
2023/10/10 09:30:32;;;;;;;;;;;16.70;99.90;;;;;;12481327;28;20471;-85
2023/10/10 09:36:39;;;;;;;;;;;16.70;99.90;;;;;;12496302;28;19925;-83
2023/10/10 10:01:22;;;;;;;;;;;17.20;99.90;;;;;;12500520;28;19925;-82
2023/10/10 10:07:35;;;;;;;;;;;17.70;99.90;;;;;;12490953;28;20048;-82
2023/10/10 10:13:40;;;;;;;;;;;18.00;99.90;;;;;;12505364;28;19937;-86
2023/10/10 10:19:45;;;;;;;;;;;18.40;99.90;;;;;;12496644;28;19984;-84
2023/10/10 10:25:54;;;;;;;;;;;18.80;99.90;;;;;;12490918;28;20396;-84
2023/10/10 10:31:59;;;;;;;;;;;19.00;99.90;;;;;;12509716;28;19933;-86
2023/10/10 10:38:05;;;;;;;;;;;18.80;99.90;;;;;;12549691;28;19944;-83
2023/10/10 10:44:09;;;;;;;;;;;18.50;99.90;;;;;;12555899;28;19932;-83
2023/10/10 10:50:28;;;;;;;;;;;18.30;99.90;;;;;;12551118;28;19936;-83
2023/10/10 11:02:35;;;;;;;;;;;18.30;99.90;;;;;;12514500;28;20183;-85
2023/10/10 11:14:54;;;;;;;;;;;18.20;99.90;;;;;;12512708;28;20448;-85
2023/10/10 11:20:56;;;;;;;;;;;18.20;99.90;;;;;;12504377;28;19929;-84
2023/10/10 11:33:30;;;;;;;;;;;18.70;99.90;;;;;;12505380;28;19931;-84
2023/10/10 11:39:33;;;;;;;;;;;19.30;99.90;;;;;;12487462;28;19956;-85
2023/10/10 11:45:50;;;;;;;;;;;19.90;99.90;;;;;;12489874;28;19929;-85
2023/10/10 11:51:53;;;;;;;;;;;20.30;99.90;;;;;;12508128;28;19974;-87
2023/10/10 11:57:58;;;;;;;;;;;20.50;99.90;;;;;;12494186;28;19929;-84
2023/10/10 12:04:20;;;;;;;;;;;20.50;99.90;;;;;;12484553;28;19951;-85
2023/10/10 12:10:24;;;;;;;;;;;20.60;99.90;;;;;;12498729;28;19932;-84
2023/10/10 12:16:27;;;;;;;;;;;20.40;99.90;;;;;;12501360;28;19969;-84
2023/10/10 12:22:29;;;;;;;;;;;20.10;99.90;;;;;;12491620;28;19991;-85
2023/10/10 12:28:31;;;;;;;;;;;19.80;99.90;;;;;;12499611;28;20397;-85
2023/10/10 12:34:33;;;;;;;;;;;19.90;99.90;;;;;;12484305;28;20366;-87
2023/10/10 12:40:35;;;;;;;;;;;20.10;99.90;;;;;;12496141;28;19928;-85
2023/10/10 12:46:37;;;;;;;;;;;20.00;99.90;;;;;;12500003;28;19950;-86
2023/10/10 12:52:45;;;;;;;;;;;20.20;99.90;;;;;;12482761;28;19982;-84
2023/10/10 12:58:57;;;;;;;;;;;20.40;99.90;;;;;;12504658;28;19929;-84
2023/10/10 13:05:08;;;;;;;;;;;20.50;99.90;;;;;;12498255;28;19971;-85
2023/10/10 13:11:14;;;;;;;;;;;20.50;99.90;;;;;;12511909;28;19967;-86
2023/10/10 13:17:29;;;;;;;;;;;20.50;99.90;;;;;;12504955;28;20342;-86
2023/10/10 13:23:35;;;;;;;;;;;20.60;99.90;;;;;;12492007;28;19929;-85
2023/10/10 13:29:37;;;;;;;;;;;20.80;99.90;;;;;;12506137;28;19929;-88
2023/10/10 13:35:39;;;;;;;;;;;20.80;99.90;;;;;;12500883;28;19967;-86
2023/10/10 13:41:41;;;;;;;;;;;20.70;99.90;;;;;;12497854;28;19942;-86
2023/10/10 13:47:48;;;;;;;;;;;20.60;99.90;;;;;;12508998;28;19933;-87
2023/10/10 13:53:55;;;;;;;;;;;20.60;99.90;;;;;;12491977;28;20089;-86
2023/10/10 13:59:58;;;;;;;;;;;20.50;99.90;;;;;;12507085;28;20019;-85
2023/10/10 14:06:04;;;;;;;;;;;20.50;99.90;;;;;;12481397;28;19964;-87
2023/10/10 14:12:08;;;;;;;;;;;20.50;99.90;;;;;;12508394;28;19936;-86
2023/10/10 14:18:10;;;;;;;;;;;20.50;99.90;;;;;;12502740;28;20009;-88
2023/10/10 14:24:15;;;;;;;;;;;20.50;99.90;;;;;;12507184;28;19967;-87
2023/10/10 14:30:23;;;;;;;;;;;20.50;99.90;;;;;;12495010;28;20349;-87
2023/10/10 14:36:39;;;;;;;;;;;20.50;99.90;;;;;;12494191;28;20503;-85
2023/10/10 14:42:41;;;;;;;;;;;20.50;59.20;;;;;;12473634;28;19986;-86
2023/10/10 14:48:46;;;;;;;;;;;20.40;95.20;;;;;;12506464;28;19987;-85
2023/10/10 14:54:51;;;;;;;;;;;20.10;45.60;;;;;;12507194;28;20314;-86
2023/10/10 15:00:56;;;;;;;;;;;19.80;99.90;;;;;;12503687;28;20431;-86
2023/10/10 15:06:59;;;;;;;;;;;19.50;99.90;;;;;;12505031;28;19933;-87
2023/10/10 15:13:01;;;;;;;;;;;19.50;70.50;;;;;;12495815;28;19933;-87
2023/10/10 15:19:06;;;;;;;;;;;19.30;97.10;;;;;;12502168;28;19939;-86
2023/10/10 15:25:10;;;;;;;;;;;19.20;99.90;;;;;;12480164;28;19982;-87
2023/10/10 15:31:13;;;;;;;;;;;19.10;99.90;;;;;;12501656;28;20292;-87
2023/10/10 15:37:15;;;;;;;;;;;19.10;99.90;;;;;;12495526;28;20035;-88
2023/10/10 15:43:17;;;;;;;;;;;19.00;99.90;;;;;;12488449;28;19940;-87
2023/10/10 15:49:33;;;;;;;;;;;19.00;99.90;;;;;;12503284;28;20375;-87
2023/10/10 15:55:37;;;;;;;;;;;19.10;99.90;;;;;;12498529;28;20381;-86
2023/10/10 16:01:43;;;;;;;;;;;19.10;79.20;;;;;;12499889;28;20024;-88
2023/10/10 16:07:46;;;;;;;;;;;19.00;99.90;;;;;;12499980;28;20382;-87
2023/10/10 16:14:11;;;;;;;;;;;18.90;99.90;;;;;;12490147;28;19995;-87
2023/10/10 16:20:13;;;;;;;;;;;18.80;99.90;;;;;;12502530;28;19940;-87
2023/10/10 16:26:15;;;;;;;;;;;18.60;99.90;;;;;;12497656;28;19972;-86
2023/10/10 16:32:20;;;;;;;;;;;18.50;99.90;;;;;;12504130;28;19928;-87
2023/10/10 16:38:22;;;;;;;;;;;18.40;99.90;;;;;;12479327;28;19932;-87
2023/10/10 16:44:24;;;;;;;;;;;18.30;99.90;;;;;;12491867;28;19933;-87
2023/10/10 16:50:26;;;;;;;;;;;18.30;99.90;;;;;;12491286;28;19935;-87
2023/10/10 16:56:29;;;;;;;;;;;18.30;99.90;;;;;;12490446;28;19955;-88
2023/10/10 17:02:31;;;;;;;;;;;18.30;99.90;;;;;;12498265;28;19935;-88
2023/10/10 17:08:33;;;;;;;;;;;18.30;99.90;;;;;;12517010;28;19932;-88
2023/10/10 17:14:37;;;;;;;;;;;18.20;99.90;;;;;;12561236;28;19935;-87
2023/10/10 17:20:39;;;;;;;;;;;18.20;99.90;;;;;;12558059;28;19944;-88
2023/10/10 17:26:44;;;;;;;;;;;18.10;99.90;;;;;;12553660;28;20048;-87
2023/10/10 17:32:46;;;;;;;;;;;18.20;99.90;;;;;;12547167;28;20631;-88
2023/10/10 17:38:48;;;;;;;;;;;18.20;99.90;;;;;;12557768;28;19925;-88
2023/10/10 17:44:50;;;;;;;;;;;18.10;99.90;;;;;;12547777;28;19933;-88
2023/10/10 17:50:52;;;;;;;;;;;18.10;99.90;;;;;;12517628;28;19925;-88
2023/10/10 17:56:56;;;;;;;;;;;18.10;99.90;;;;;;12497372;28;20059;-86
2023/10/10 18:03:00;;;;;;;;;;;18.00;99.90;;;;;;12479822;28;19956;-85
2023/10/10 18:09:07;;;;;;;;;;;18.10;99.90;;;;;;12491902;28;19929;-83
2023/10/10 18:15:11;;;;;;;;;;;18.10;99.90;;;;;;12483269;28;19928;-85
2023/10/10 18:21:13;;;;;;;;;;;18.20;99.90;;;;;;12449636;28;20359;-86
2023/10/10 18:27:16;;;;;;;;;;;18.20;99.90;;;;;;12448901;28;20035;-85
2023/10/10 18:33:18;;;;;;;;;;;18.20;99.90;;;;;;12501466;28;20034;-86
2023/10/10 18:39:20;;;;;;;;;;;18.20;99.90;;;;;;12505509;28;20035;-83
2023/10/10 18:45:22;;;;;;;;;;;18.20;99.90;;;;;;12499364;28;19978;-86
2023/10/10 18:51:24;;;;;;;;;;;18.10;99.90;;;;;;12508064;28;19940;-87
2023/10/10 18:57:27;;;;;;;;;;;18.10;99.90;;;;;;12504428;28;19929;-86
2023/10/10 19:03:29;;;;;;;;;;;18.10;99.90;;;;;;12503045;28;19929;-84
2023/10/10 19:09:32;;;;;;;;;;;18.00;99.90;;;;;;12500458;28;19969;-87
2023/10/10 19:15:37;;;;;;;;;;;18.00;99.90;;;;;;12506297;28;19995;-86
2023/10/10 19:21:41;;;;;;;;;;;17.90;99.90;;;;;;12514076;28;20457;-84
2023/10/10 19:27:47;;;;;;;;;;;17.90;99.90;;;;;;12498286;28;19994;-86
2023/10/10 19:33:50;;;;;;;;;;;18.00;99.90;;;;;;12487608;28;19929;-86
2023/10/10 19:39:53;;;;;;;;;;;18.00;99.90;;;;;;12503420;28;20460;-86
2023/10/10 19:45:55;;;;;;;;;;;18.00;99.90;;;;;;12498843;28;19956;-85
2023/10/10 19:51:57;;;;;;;;;;;18.00;99.90;;;;;;12496794;28;19933;-85
2023/10/10 19:57:58;;;;;;;;;;;17.90;99.90;;;;;;12488179;28;20051;-86
2023/10/10 20:04:00;;;;;;;;;;;18.00;99.90;;;;;;12497225;28;19936;-85
2023/10/10 20:10:04;;;;;;;;;;;18.10;99.90;;;;;;12475060;28;19998;-86
2023/10/10 20:16:12;;;;;;;;;;;18.10;99.90;;;;;;12463960;28;20023;-86
2023/10/10 20:22:14;;;;;;;;;;;18.00;99.90;;;;;;12436966;28;19933;-85
2023/10/10 20:28:16;;;;;;;;;;;17.90;99.90;;;;;;12443978;28;20044;-85
2023/10/10 20:34:18;;;;;;;;;;;18.00;99.90;;;;;;12450668;28;19956;-86
2023/10/10 20:40:23;;;;;;;;;;;18.00;99.90;;;;;;12434234;28;20371;-85
2023/10/10 20:46:28;;;;;;;;;;;17.90;99.90;;;;;;12449504;28;19960;-86
2023/10/10 20:52:30;;;;;;;;;;;17.90;99.90;;;;;;12437298;28;19933;-85
2023/10/10 20:58:34;;;;;;;;;;;17.90;99.90;;;;;;12458993;28;20400;-86
2023/10/10 21:04:36;;;;;;;;;;;17.90;99.90;;;;;;12433728;28;20031;-85
2023/10/10 21:10:40;;;;;;;;;;;17.90;99.90;;;;;;12441883;28;19930;-86
2023/10/10 21:16:42;;;;;;;;;;;18.00;99.90;;;;;;12479101;28;19978;-86
2023/10/10 21:22:46;;;;;;;;;;;18.00;99.90;;;;;;12498739;28;19986;-86
2023/10/10 21:28:48;;;;;;;;;;;18.10;99.90;;;;;;12497864;28;19960;-85
2023/10/10 21:34:50;;;;;;;;;;;18.20;99.90;;;;;;12492629;28;19967;-85
2023/10/10 21:41:00;;;;;;;;;;;18.20;99.90;;;;;;12485902;28;19928;-86
2023/10/10 21:47:02;;;;;;;;;;;18.30;99.90;;;;;;12493837;28;19936;-84
2023/10/10 21:53:03;;;;;;;;;;;18.30;99.90;;;;;;12468104;28;20027;-86
2023/10/10 21:59:06;;;;;;;;;;;18.20;99.90;;;;;;12496310;28;20023;-86
2023/10/10 22:05:08;;;;;;;;;;;18.10;99.90;;;;;;12494426;28;20427;-86
2023/10/10 22:11:11;;;;;;;;;;;18.10;99.90;;;;;;12489408;28;19933;-85
2023/10/10 22:17:13;;;;;;;;;;;18.10;99.90;;;;;;12503818;28;20336;-85
2023/10/10 22:23:15;;;;;;;;;;;18.00;99.90;;;;;;12499860;28;19929;-83
2023/10/10 22:29:18;;;;;;;;;;;18.00;99.90;;;;;;12497146;28;20427;-86
2023/10/10 22:35:21;;;;;;;;;;;18.00;99.90;;;;;;12491144;28;19936;-86
2023/10/10 22:41:27;;;;;;;;;;;18.00;99.90;;;;;;12527350;28;19940;-83
2023/10/10 22:47:29;;;;;;;;;;;18.00;99.90;;;;;;12555675;28;19921;-86
2023/10/10 22:53:32;;;;;;;;;;;18.10;99.90;;;;;;12560063;28;19929;-87
2023/10/10 22:59:37;;;;;;;;;;;18.20;99.90;;;;;;12559897;28;19936;-87
2023/10/10 23:05:38;;;;;;;;;;;18.20;99.90;;;;;;12550856;28;19967;-85
2023/10/10 23:11:41;;;;;;;;;;;18.30;99.90;;;;;;12553776;28;20382;-86
2023/10/10 23:17:44;;;;;;;;;;;18.30;99.90;;;;;;12512697;28;19929;-82
2023/10/10 23:23:46;;;;;;;;;;;18.40;99.90;;;;;;12512573;28;20046;-85
2023/10/10 23:29:50;;;;;;;;;;;18.40;99.90;;;;;;12512228;28;19933;-85
2023/10/10 23:35:52;;;;;;;;;;;18.40;99.90;;;;;;12513178;28;20077;-83
2023/10/10 23:41:54;;;;;;;;;;;18.40;99.90;;;;;;12505001;28;19929;-82
2023/10/10 23:47:56;;;;;;;;;;;18.30;99.90;;;;;;12502536;28;19935;-81
2023/10/10 23:54:04;;;;;;;;;;;18.20;99.90;;;;;;12505278;28;19925;-83
